Time;durP1;ratioP1;P1;durP2;ratioP2;P2;SDS_P1;SDS_P2;PMS_P1;PMS_P2;Temp;Humidity;BMP_temperature;BMP_pressure;BME280_temperature;BME280_humidity;BME280_pressure;Samples;Min_cycle;Max_cycle;Signal;HPM_P1;HPM_P2
2022/09/04 04:01:52;;;;;;;4.20;3.13;;;16.30;99.90;;;;;;5433469;23;20567;-75
2022/09/04 04:04:42;;;;;;;5.20;3.60;;;16.30;99.90;;;;;;4987655;28;20908;-75
2022/09/04 04:07:23;;;;;;;3.20;2.90;;;16.30;99.90;;;;;;4988019;28;20677;-75
2022/09/04 04:10:02;;;;;;;3.80;3.20;;;16.20;99.90;;;;;;4987707;28;20459;-75
2022/09/04 04:12:48;;;;;;;4.03;2.97;;;16.20;99.90;;;;;;4988238;28;20843;-75
2022/09/04 04:15:30;;;;;;;5.10;2.90;;;16.20;99.90;;;;;;4987405;28;21024;-75
2022/09/04 04:18:12;;;;;;;5.17;3.10;;;16.20;99.90;;;;;;4987646;28;20452;-75
2022/09/04 04:20:46;;;;;;;6.63;3.20;;;16.20;99.90;;;;;;4988054;28;20990;-75
2022/09/04 04:23:28;;;;;;;3.50;3.20;;;16.20;99.90;;;;;;4987637;28;20943;-75
2022/09/04 04:26:07;;;;;;;5.27;3.60;;;16.20;99.90;;;;;;4987190;28;20936;-75
2022/09/04 04:29:02;;;;;;;3.10;2.80;;;16.10;99.90;;;;;;4987884;28;20466;-75
2022/09/04 04:31:40;;;;;;;3.67;3.10;;;16.10;99.90;;;;;;4987250;28;21021;-75
2022/09/04 04:34:16;;;;;;;3.73;3.17;;;16.10;99.90;;;;;;4986217;28;20465;-75
2022/09/04 04:36:51;;;;;;;4.40;3.10;;;16.10;99.90;;;;;;4987461;28;20495;-75
2022/09/04 04:39:24;;;;;;;3.10;2.80;;;16.10;99.90;;;;;;4987502;28;20453;-75
2022/09/04 04:42:05;;;;;;;3.80;2.80;;;16.00;99.90;;;;;;4987538;28;20485;-76
2022/09/04 04:48:06;;;;;;;2.80;2.57;;;16.10;99.90;;;;;;4987395;28;20927;-75
2022/09/04 04:50:44;;;;;;;3.67;3.37;;;16.00;99.90;;;;;;4987234;28;20897;-75
2022/09/04 04:53:19;;;;;;;4.17;2.97;;;16.00;99.90;;;;;;4987496;28;20463;-75
2022/09/04 04:55:53;;;;;;;3.20;2.90;;;15.90;99.90;;;;;;4986309;28;20696;-75
2022/09/04 04:58:46;;;;;;;3.73;3.33;;;15.90;99.90;;;;;;4987356;28;20455;-75
2022/09/04 05:01:22;;;;;;;5.60;3.47;;;15.80;99.90;;;;;;4987040;28;20899;-75
2022/09/04 05:03:59;;;;;;;3.87;3.10;;;15.80;99.90;;;;;;4987157;28;20962;-75
2022/09/04 05:06:35;;;;;;;3.33;2.80;;;15.80;99.90;;;;;;4986602;28;20923;-75
2022/09/04 05:09:12;;;;;;;3.40;3.10;;;15.80;99.90;;;;;;4986800;28;20950;-75
2022/09/04 05:11:50;;;;;;;3.20;2.90;;;15.80;99.90;;;;;;4987039;28;20487;-75
2022/09/04 05:14:26;;;;;;;3.30;3.00;;;15.90;99.90;;;;;;4986159;28;20952;-75
2022/09/04 05:16:59;;;;;;;5.53;3.03;;;15.90;99.90;;;;;;4987104;28;20502;-75
2022/09/04 05:19:32;;;;;;;4.93;3.40;;;15.80;99.90;;;;;;4986854;28;20463;-75
2022/09/04 05:22:09;;;;;;;3.30;3.00;;;15.80;99.90;;;;;;4986621;28;20476;-75
2022/09/04 05:24:44;;;;;;;3.97;3.13;;;15.80;99.90;;;;;;4986253;28;20447;-75
2022/09/04 05:27:38;;;;;;;5.53;3.77;;;15.80;99.90;;;;;;4986680;28;20952;-75
2022/09/04 05:30:10;;;;;;;4.73;3.27;;;15.80;99.90;;;;;;4986543;28;20460;-75
2022/09/04 05:32:43;;;;;;;4.40;3.17;;;15.80;99.90;;;;;;4986734;28;20447;-75
2022/09/04 05:35:17;;;;;;;3.70;3.20;;;15.80;99.90;;;;;;4985809;28;20460;-75
2022/09/04 05:37:56;;;;;;;4.10;3.30;;;15.70;99.90;;;;;;4985946;28;20553;-75
2022/09/04 05:40:28;;;;;;;4.43;3.50;;;15.70;99.90;;;;;;4986383;28;20463;-75
2022/09/04 05:43:20;;;;;;;4.80;3.50;;;15.80;99.90;;;;;;4986222;28;20460;-75
2022/09/04 05:45:58;;;;;;;3.53;3.00;;;15.80;99.90;;;;;;4985093;28;20467;-68
2022/09/04 05:48:31;;;;;;;4.10;3.70;;;15.80;99.90;;;;;;4986128;28;20482;-68
2022/09/04 05:51:27;;;;;;;4.63;3.40;;;15.80;99.90;;;;;;4986661;28;20470;-68
2022/09/04 05:54:30;;;;;;;4.97;3.40;;;15.80;99.90;;;;;;4971513;28;20478;-68
2022/09/04 05:57:11;;;;;;;4.23;3.83;;;15.80;99.90;;;;;;4986753;28;20502;-68
2022/09/04 06:00:11;;;;;;;4.53;3.80;;;15.80;99.90;;;;;;4986635;28;20478;-68
2022/09/04 06:03:06;;;;;;;4.87;4.13;;;15.80;99.90;;;;;;4986553;28;20460;-68
2022/09/04 06:05:44;;;;;;;4.50;3.97;;;15.90;99.90;;;;;;4985786;28;20823;-68
2022/09/04 06:08:24;;;;;;;4.10;3.57;;;15.80;99.90;;;;;;4984041;28;20900;-68
2022/09/04 06:11:03;;;;;;;3.80;3.40;;;15.90;99.90;;;;;;4986406;28;20485;-68
2022/09/04 06:14:00;;;;;;;4.13;3.73;;;15.90;99.90;;;;;;4986550;28;20830;-68
2022/09/04 06:16:48;;;;;;;5.37;3.87;;;15.90;99.90;;;;;;4986037;28;20584;-68
2022/09/04 06:19:44;;;;;;;4.90;4.40;;;15.90;99.90;;;;;;4986017;28;20926;-68
2022/09/04 06:22:32;;;;;;;6.83;3.70;;;15.90;99.90;;;;;;4985996;28;20479;-68
2022/09/04 06:25:33;;;;;;;6.00;4.40;;;15.90;99.90;;;;;;4985581;28;20471;-69
2022/09/04 06:28:26;;;;;;;6.03;4.17;;;16.00;99.90;;;;;;4993285;28;20890;-69
2022/09/04 06:31:02;;;;;;;4.73;4.00;;;16.00;99.90;;;;;;5005508;28;20566;-68
2022/09/04 06:33:54;;;;;;;4.60;4.00;;;16.10;99.90;;;;;;5005572;28;20447;-76
2022/09/04 06:36:40;;;;;;;5.43;4.00;;;16.10;99.90;;;;;;5005087;28;20489;-75
2022/09/04 06:39:22;;;;;;;9.87;4.10;;;16.10;99.90;;;;;;5005641;28;20546;-75
2022/09/04 06:42:04;;;;;;;4.00;3.60;;;16.10;99.90;;;;;;5005323;28;20501;-76
2022/09/04 06:44:46;;;;;;;4.70;3.77;;;16.20;99.90;;;;;;5004842;28;20846;-76
2022/09/04 06:47:26;;;;;;;6.73;3.40;;;16.20;99.90;;;;;;5005590;28;20490;-76
2022/09/04 06:50:05;;;;;;;4.40;3.57;;;16.30;99.90;;;;;;5005377;28;20458;-76
2022/09/04 06:52:41;;;;;;;6.30;4.50;;;16.40;99.90;;;;;;5005297;28;20487;-75
2022/09/04 06:55:13;;;;;;;6.60;3.87;;;16.40;99.90;;;;;;5005013;28;20466;-76
2022/09/04 06:58:06;;;;;;;7.53;3.57;;;16.50;99.90;;;;;;5009005;28;20502;-75
2022/09/04 07:00:39;;;;;;;6.90;3.63;;;16.50;99.90;;;;;;5006871;28;20482;-76
2022/09/04 07:03:30;;;;;;;5.60;4.20;;;16.60;99.90;;;;;;5008732;28;20989;-75
2022/09/04 07:06:02;;;;;;;4.10;3.60;;;16.70;99.90;;;;;;5005276;28;20467;-76
2022/09/04 07:08:46;;;;;;;5.47;4.20;;;16.80;99.90;;;;;;5009311;28;20447;-75
2022/09/04 07:11:24;;;;;;;3.70;3.30;;;16.80;99.90;;;;;;5009415;28;20486;-75
2022/09/04 07:14:15;;;;;;;3.40;3.10;;;16.80;99.90;;;;;;5009319;28;20458;-75
2022/09/04 07:16:49;;;;;;;6.20;3.90;;;16.90;99.90;;;;;;5009114;28;20540;-75
2022/09/04 07:19:48;;;;;;;5.77;3.60;;;17.00;99.90;;;;;;5009208;28;20445;-75
2022/09/04 07:22:47;;;;;;;4.00;3.60;;;17.20;99.90;;;;;;5003336;28;20493;-76
2022/09/04 07:25:21;;;;;;;5.00;3.60;;;17.20;99.90;;;;;;4994359;28;20653;-75
2022/09/04 07:28:12;;;;;;;4.70;4.07;;;17.30;99.90;;;;;;5008318;28;21025;-75
2022/09/04 07:30:45;;;;;;;5.57;3.97;;;17.50;99.90;;;;;;5008941;28;20493;-75
2022/09/04 07:33:23;;;;;;;5.10;3.63;;;17.50;99.90;;;;;;5008896;28;20443;-76
2022/09/04 07:35:58;;;;;;;4.10;3.17;;;17.60;99.90;;;;;;5007763;28;20998;-76
2022/09/04 07:38:34;;;;;;;7.43;4.17;;;17.60;99.90;;;;;;5008378;28;21028;-75
2022/09/04 07:41:09;;;;;;;4.00;3.60;;;17.70;99.90;;;;;;5008194;28;21112;-76
2022/09/04 07:43:43;;;;;;;6.37;4.00;;;17.80;99.90;;;;;;5008368;28;20446;-75
2022/09/04 07:46:18;;;;;;;3.50;3.20;;;17.90;99.90;;;;;;5007810;28;20824;-75
2022/09/04 07:48:54;;;;;;;3.97;3.30;;;17.90;99.90;;;;;;5008356;28;21090;-75
2022/09/04 07:51:28;;;;;;;4.20;3.23;;;18.00;99.90;;;;;;5008340;28;20496;-76
2022/09/04 07:54:25;;;;;;;4.33;3.93;;;18.10;99.90;;;;;;5008122;28;20488;-75
2022/09/04 07:57:20;;;;;;;4.53;3.53;;;18.20;99.90;;;;;;5008117;28;20501;-75
2022/09/04 08:00:03;;;;;;;6.60;3.80;;;18.20;99.90;;;;;;5007961;28;20477;-75
2022/09/04 08:02:47;;;;;;;4.53;3.80;;;18.40;99.90;;;;;;5006299;28;20498;-75
2022/09/04 08:05:24;;;;;;;5.03;3.63;;;18.50;99.90;;;;;;5007828;28;20804;-75
2022/09/04 08:08:32;;;;;;;4.30;3.90;;;18.60;99.90;;;;;;5007114;28;20459;-76
2022/09/04 08:11:26;;;;;;;4.50;4.10;;;18.80;99.90;;;;;;5007922;28;20474;-75
2022/09/04 08:14:08;;;;;;;4.57;3.80;;;18.80;99.90;;;;;;4939810;28;20465;-76
2022/09/04 08:16:42;;;;;;;4.50;4.00;;;18.90;99.90;;;;;;4968047;28;20547;-76
2022/09/04 08:19:23;;;;;;;4.47;3.27;;;18.90;99.90;;;;;;4969104;28;20461;-76
2022/09/04 08:21:54;;;;;;;4.60;4.20;;;19.10;99.90;;;;;;4968710;28;20487;-75
2022/09/04 08:24:51;;;;;;;4.40;3.50;;;19.20;99.90;;;;;;4968323;28;20519;-75
2022/09/04 08:27:29;;;;;;;4.63;3.57;;;19.30;99.90;;;;;;4969021;28;20476;-76
2022/09/04 08:30:06;;;;;;;5.17;3.77;;;19.70;99.90;;;;;;4968947;28;20429;-75
2022/09/04 08:33:18;;;;;;;3.90;3.50;;;20.10;99.90;;;;;;4968686;28;20480;-75
2022/09/04 08:35:54;;;;;;;4.50;4.00;;;20.30;99.90;;;;;;4968173;28;20483;-76
2022/09/04 08:38:35;;;;;;;4.10;3.53;;;20.90;99.90;;;;;;4968636;28;20526;-75
2022/09/04 08:41:44;;;;;;;4.37;3.80;;;21.00;99.90;;;;;;4968773;28;20488;-76
2022/09/04 08:44:47;;;;;;;4.37;3.30;;;21.00;99.90;;;;;;4952728;28;20476;-76
2022/09/04 08:47:59;;;;;;;4.47;3.50;;;21.10;99.90;;;;;;4968441;28;20436;-76
2022/09/04 08:50:50;;;;;;;4.47;2.50;;;21.00;99.90;;;;;;4968273;28;20440;-76
2022/09/04 08:53:52;;;;;;;3.40;3.10;;;21.60;99.90;;;;;;4968001;28;20544;-76
2022/09/04 08:56:26;;;;;;;3.13;2.40;;;22.00;99.90;;;;;;4912527;28;20545;-76
2022/09/04 08:59:29;;;;;;;4.60;2.77;;;22.00;99.90;;;;;;4967981;28;20471;-76
2022/09/04 09:02:43;;;;;;;4.20;2.93;;;22.20;99.90;;;;;;4967893;28;20492;-76
2022/09/04 09:05:43;;;;;;;3.17;2.53;;;22.40;99.90;;;;;;4941195;28;20464;-76
2022/09/04 09:08:33;;;;;;;4.03;2.60;;;22.30;99.90;;;;;;4963263;28;20931;-76
2022/09/04 09:11:40;;;;;;;3.20;2.30;;;22.30;99.90;;;;;;4967502;28;20866;-77
2022/09/04 09:14:45;;;;;;;2.67;2.47;;;22.60;99.90;;;;;;4966799;28;20468;-77
2022/09/04 09:17:15;;;;;;;2.40;2.20;;;22.90;99.90;;;;;;4967504;28;20507;-76
2022/09/04 09:19:47;;;;;;;2.73;2.43;;;23.00;99.90;;;;;;4967161;28;20510;-76
2022/09/04 09:22:35;;;;;;;2.50;2.20;;;23.10;99.90;;;;;;4966975;28;21004;-76
2022/09/04 09:25:19;;;;;;;3.17;1.70;;;23.20;99.90;;;;;;4967012;28;20637;-75
2022/09/04 09:28:34;;;;;;;3.40;1.80;;;23.30;99.90;;;;;;4967273;28;20476;-75
2022/09/04 09:31:41;;;;;;;3.23;2.10;;;23.30;99.90;;;;;;4967349;28;20476;-75
2022/09/04 09:34:46;;;;;;;2.20;1.73;;;23.20;99.90;;;;;;4966893;28;20448;-76
2022/09/04 09:37:39;;;;;;;3.10;2.10;;;23.20;99.90;;;;;;4967168;28;20506;-75
2022/09/04 09:40:26;;;;;;;2.50;1.83;;;23.30;99.90;;;;;;4954875;28;20523;-76
2022/09/04 09:43:25;;;;;;;2.57;2.10;;;23.30;99.90;;;;;;4967104;28;20467;-76
2022/09/04 09:46:23;;;;;;;2.03;1.83;;;23.10;99.90;;;;;;4964729;28;20992;-76
2022/09/04 09:49:27;;;;;;;3.90;1.90;;;23.10;99.90;;;;;;4967188;28;20452;-77
2022/09/04 09:52:19;;;;;;;3.47;1.80;;;23.30;99.90;;;;;;4966917;28;20484;-77
2022/09/04 09:55:25;;;;;;;2.13;1.57;;;23.40;99.90;;;;;;4967730;28;20459;-77
2022/09/04 09:58:33;;;;;;;1.90;1.70;;;23.50;99.90;;;;;;4967000;28;20492;-75
2022/09/04 10:01:13;;;;;;;2.33;1.60;;;23.50;99.90;;;;;;4967006;28;20755;-76
2022/09/04 10:04:10;;;;;;;3.60;2.07;;;23.80;99.90;;;;;;4967189;28;21215;-76
2022/09/04 10:07:14;;;;;;;6.67;2.20;;;24.10;99.90;;;;;;4967170;28;20519;-77
2022/09/04 10:10:14;;;;;;;5.13;1.70;;;24.30;99.90;;;;;;4966972;28;20902;-77
2022/09/04 10:13:19;;;;;;;1.50;1.30;;;24.40;99.90;;;;;;4962170;28;20468;-76
2022/09/04 10:16:00;;;;;;;2.73;1.63;;;24.50;99.90;;;;;;4966545;28;20444;-77
2022/09/04 10:19:15;;;;;;;1.53;1.40;;;24.60;99.90;;;;;;4966976;28;20499;-76
2022/09/04 10:22:19;;;;;;;2.70;1.40;;;24.90;99.90;;;;;;4970975;28;20492;-77
2022/09/04 10:25:24;;;;;;;3.10;1.27;;;24.80;99.90;;;;;;4971676;28;20452;-77
2022/09/04 10:28:24;;;;;;;3.10;1.47;;;24.70;99.90;;;;;;4950858;28;20512;-75
2022/09/04 10:31:39;;;;;;;1.63;1.53;;;24.70;99.90;;;;;;4966644;28;20476;-77
2022/09/04 10:34:41;;;;;;;2.27;1.30;;;24.80;99.90;;;;;;4968415;28;20471;-76
2022/09/04 10:37:22;;;;;;;2.00;1.20;;;25.00;99.90;;;;;;4958424;28;20472;-77
2022/09/04 10:43:08;;;;;;;1.50;1.33;;;25.20;99.90;;;;;;4968042;28;20445;-77
2022/09/04 10:45:38;;;;;;;1.80;1.30;;;25.50;99.90;;;;;;4967397;28;20449;-77
2022/09/04 10:48:50;;;;;;;1.10;1.00;;;25.70;99.90;;;;;;4969148;28;20497;-75
2022/09/04 10:51:48;;;;;;;2.20;1.30;;;26.00;99.90;;;;;;4966572;28;20571;-76
2022/09/04 10:54:53;;;;;;;3.27;1.70;;;27.60;99.90;;;;;;4966292;28;20531;-77
2022/09/04 10:57:44;;;;;;;2.13;1.37;;;29.20;99.90;;;;;;4970611;28;20873;-77
2022/09/04 11:00:13;;;;;;;1.87;1.37;;;28.70;99.90;;;;;;4971905;28;20448;-77
2022/09/04 11:03:12;;;;;;;1.30;1.20;;;28.20;99.90;;;;;;4972505;28;20551;-78
2022/09/04 11:06:22;;;;;;;1.90;1.47;;;27.80;99.90;;;;;;4972293;28;20452;-77
2022/09/04 11:09:14;;;;;;;4.73;1.20;;;27.40;99.90;;;;;;4925739;28;20503;-75
2022/09/04 11:12:00;;;;;;;2.17;1.23;;;27.10;99.90;;;;;;4973105;28;21133;-76
2022/09/04 11:15:07;;;;;;;1.77;1.17;;;26.90;99.90;;;;;;4971466;28;20449;-76
2022/09/04 11:18:01;;;;;;;2.60;1.60;;;27.00;99.90;;;;;;4972809;28;21056;-76
2022/09/04 11:21:07;;;;;;;2.83;1.90;;;27.10;99.90;;;;;;4973002;28;20464;-78
2022/09/04 11:24:19;;;;;;;2.83;1.10;;;27.20;99.90;;;;;;4972397;28;20468;-77
2022/09/04 11:27:34;;;;;;;3.30;1.57;;;27.20;99.90;;;;;;4930574;29;20565;-78
2022/09/04 11:30:12;;;;;;;2.47;1.47;;;27.30;99.90;;;;;;4954663;28;20552;-78
2022/09/04 11:33:13;;;;;;;2.00;1.30;;;27.20;99.90;;;;;;4972572;28;20503;-78
2022/09/04 11:36:17;;;;;;;1.73;1.23;;;27.20;99.90;;;;;;4971965;28;20468;-77
2022/09/04 11:39:07;;;;;;;1.97;1.50;;;27.10;99.90;;;;;;4968723;28;20481;-76
2022/09/04 11:42:00;;;;;;;3.30;1.80;;;26.80;99.90;;;;;;4973061;28;20472;-78
2022/09/04 11:44:52;;;;;;;1.97;1.67;;;26.60;99.90;;;;;;4975406;28;20523;-78
2022/09/04 11:47:55;;;;;;;1.77;1.30;;;26.40;99.90;;;;;;4976222;28;20453;-76
2022/09/04 11:50:37;;;;;;;2.03;1.40;;;26.40;99.90;;;;;;4974668;28;20964;-78
2022/09/04 11:53:26;;;;;;;3.93;1.70;;;26.60;99.90;;;;;;4976457;28;20486;-78
2022/09/04 11:56:18;;;;;;;2.73;2.23;;;26.80;99.90;;;;;;4974730;28;20457;-77
2022/09/04 11:59:09;;;;;;;3.20;1.80;;;27.00;99.90;;;;;;4975094;28;20503;-77
2022/09/04 12:02:08;;;;;;;8.83;1.60;;;27.30;99.90;;;;;;4960717;28;21073;-76
2022/09/04 12:04:55;;;;;;;1.90;1.23;;;27.50;99.90;;;;;;4968536;28;20464;-76
2022/09/04 12:07:37;;;;;;;1.30;1.20;;;27.50;99.90;;;;;;4969608;28;20444;-75
2022/09/04 12:10:22;;;;;;;1.50;1.00;;;27.60;99.90;;;;;;4969063;28;20460;-75
2022/09/04 12:13:17;;;;;;;1.70;1.50;;;27.50;99.90;;;;;;4969114;28;20488;-75
2022/09/04 12:16:20;;;;;;;3.70;1.63;;;27.50;99.90;;;;;;4968108;28;20465;-75
2022/09/04 12:19:19;;;;;;;2.50;1.30;;;27.90;99.90;;;;;;4969041;28;20488;-76
2022/09/04 12:22:19;;;;;;;1.97;1.33;;;28.40;99.90;;;;;;4955779;28;20915;-76
2022/09/04 12:25:18;;;;;;;3.33;1.50;;;28.50;99.90;;;;;;4916390;28;20464;-76
2022/09/04 12:28:14;;;;;;;2.40;1.50;;;28.20;99.90;;;;;;4968898;28;20452;-75
2022/09/04 12:30:57;;;;;;;2.23;1.40;;;28.00;99.90;;;;;;4955494;28;20532;-75
2022/09/04 12:33:51;;;;;;;1.50;1.33;;;27.60;99.90;;;;;;4969064;28;20449;-75
2022/09/04 12:36:52;;;;;;;3.30;1.60;;;27.50;99.90;;;;;;4967961;28;20907;-75
2022/09/04 12:39:49;;;;;;;1.90;1.30;;;27.50;99.90;;;;;;4943688;28;20583;-77
2022/09/04 12:42:23;;;;;;;2.40;1.40;;;27.50;99.90;;;;;;4964557;28;20575;-78
2022/09/04 12:45:01;;;;;;;2.10;1.10;;;27.50;99.90;;;;;;4968776;28;20447;-77
2022/09/04 12:47:41;;;;;;;2.30;1.47;;;27.40;99.90;;;;;;4968913;28;20453;-77
2022/09/04 12:50:38;;;;;;;4.30;1.47;;;27.50;99.90;;;;;;4968393;28;20464;-77
2022/09/04 12:53:24;;;;;;;2.37;1.17;;;27.70;99.90;;;;;;4967781;28;20472;-76
2022/09/04 12:56:01;;;;;;;1.80;1.30;;;27.70;99.90;;;;;;4967794;28;20464;-75
2022/09/04 12:58:47;;;;;;;2.63;1.30;;;27.80;99.90;;;;;;4968510;28;20492;-76
2022/09/04 13:01:30;;;;;;;1.50;1.27;;;27.90;99.90;;;;;;4968170;28;20488;-75
2022/09/04 13:04:04;;;;;;;2.30;1.43;;;28.00;99.90;;;;;;4967779;28;20934;-76
2022/09/04 13:06:41;;;;;;;2.03;1.20;;;28.00;99.90;;;;;;4967998;28;20457;-76
2022/09/04 13:09:19;;;;;;;1.93;1.23;;;28.10;99.90;;;;;;4968146;28;20463;-76
2022/09/04 13:12:02;;;;;;;2.07;1.30;;;28.10;99.90;;;;;;4968232;28;20579;-77
2022/09/04 13:14:57;;;;;;;1.60;1.50;;;28.20;99.90;;;;;;4967156;28;20941;-76
2022/09/04 13:17:36;;;;;;;3.00;1.40;;;28.20;99.90;;;;;;4957926;28;20476;-76
2022/09/04 13:20:13;;;;;;;2.43;1.23;;;28.30;99.90;;;;;;4967791;28;20479;-77
2022/09/04 13:22:54;;;;;;;1.77;1.23;;;28.30;99.90;;;;;;4968140;28;20507;-75
2022/09/04 13:25:34;;;;;;;2.20;1.30;;;28.50;99.90;;;;;;4966806;28;20540;-77
2022/09/04 13:28:12;;;;;;;2.00;1.10;;;28.90;99.90;;;;;;4967358;28;20449;-77
2022/09/04 13:30:50;;;;;;;3.67;1.77;;;29.40;99.90;;;;;;4966579;28;20495;-77
2022/09/04 13:33:38;;;;;;;1.80;1.20;;;29.80;99.90;;;;;;4967702;28;21033;-77
2022/09/04 13:36:22;;;;;;;2.17;1.20;;;29.40;99.90;;;;;;4966550;28;21019;-77
2022/09/04 13:39:23;;;;;;;1.37;1.07;;;29.50;99.90;;;;;;4970182;28;20481;-78
2022/09/04 13:42:16;;;;;;;1.87;1.30;;;29.80;99.90;;;;;;4970480;28;21348;-77
2022/09/04 13:45:04;;;;;;;1.93;1.23;;;29.60;99.90;;;;;;4966836;28;20451;-76
2022/09/04 13:47:39;;;;;;;1.33;1.20;;;29.70;99.90;;;;;;4967188;28;20449;-76
2022/09/04 13:50:16;;;;;;;4.07;1.17;;;29.60;99.90;;;;;;4967622;28;21039;-75
2022/09/04 13:52:45;;;;;;;1.97;1.10;;;29.30;99.90;;;;;;4967529;28;20527;-76
2022/09/04 13:55:18;;;;;;;1.60;1.33;;;29.00;99.90;;;;;;4966709;28;20464;-78
2022/09/04 13:57:56;;;;;;;2.30;1.40;;;28.70;99.90;;;;;;4967654;28;20441;-79
2022/09/04 14:00:24;;;;;;;2.43;1.30;;;28.60;99.90;;;;;;4967429;28;20449;-77
2022/09/04 14:02:57;;;;;;;1.50;1.33;;;28.50;99.90;;;;;;4967329;28;20457;-76
2022/09/04 14:05:26;;;;;;;1.83;1.27;;;28.50;99.90;;;;;;4966497;28;20568;-77
2022/09/04 14:08:02;;;;;;;2.47;1.30;;;28.50;99.90;;;;;;4966483;28;20990;-77
2022/09/04 14:10:51;;;;;;;1.20;1.10;;;28.30;99.90;;;;;;4967023;28;20941;-77
2022/09/04 14:13:35;;;;;;;1.27;1.17;;;28.20;99.90;;;;;;4954465;28;20460;-77
2022/09/04 14:16:07;;;;;;;1.83;1.20;;;28.10;99.90;;;;;;4969225;28;20516;-77
2022/09/04 14:18:58;;;;;;;2.00;1.50;;;27.90;99.90;;;;;;4973427;28;20986;-78
2022/09/04 14:21:37;;;;;;;1.63;1.10;;;27.90;99.90;;;;;;4973282;28;20563;-78
2022/09/04 14:24:14;;;;;;;4.10;1.40;;;27.90;99.90;;;;;;4973479;28;20555;-78
2022/09/04 14:26:48;;;;;;;1.47;1.20;;;27.80;99.90;;;;;;4972516;28;20503;-78
2022/09/04 14:29:30;;;;;;;1.40;1.30;;;27.70;99.90;;;;;;4969745;28;20455;-78
2022/09/04 14:32:10;;;;;;;1.30;1.10;;;27.60;99.90;;;;;;4972136;28;20900;-77
2022/09/04 14:34:48;;;;;;;1.97;1.50;;;27.60;99.90;;;;;;4969536;28;20455;-78
2022/09/04 14:37:26;;;;;;;3.90;1.43;;;27.60;99.90;;;;;;4967519;28;20853;-77
2022/09/04 14:40:03;;;;;;;1.50;1.30;;;27.60;99.90;;;;;;4966032;28;20595;-68
2022/09/04 14:42:44;;;;;;;1.60;1.33;;;27.60;99.90;;;;;;4967282;28;21064;-70
2022/09/04 14:45:37;;;;;;;1.50;1.37;;;27.70;99.90;;;;;;4966677;28;20456;-70
2022/09/04 14:48:10;;;;;;;1.90;1.10;;;28.00;99.90;;;;;;4965896;28;20453;-70
2022/09/04 14:50:47;;;;;;;1.90;1.20;;;28.60;99.90;;;;;;4965343;28;20268;-69
2022/09/04 14:53:22;;;;;;;1.97;1.30;;;28.70;99.90;;;;;;4967181;28;20511;-70
2022/09/04 14:56:16;;;;;;;2.20;1.33;;;28.90;99.90;;;;;;4966053;28;20440;-69
2022/09/04 14:58:46;;;;;;;1.63;1.20;;;28.90;99.90;;;;;;4966793;28;20491;-69
2022/09/04 15:01:19;;;;;;;1.70;1.30;;;29.00;99.90;;;;;;4967118;28;20868;-71
2022/09/04 15:03:54;;;;;;;2.03;1.30;;;29.10;99.90;;;;;;4967001;28;20465;-69
2022/09/04 15:06:28;;;;;;;1.63;1.10;;;29.30;99.90;;;;;;4965154;28;20471;-70
2022/09/04 15:08:56;;;;;;;1.30;1.00;;;29.40;99.90;;;;;;4966338;28;20735;-71
2022/09/04 15:11:29;;;;;;;1.70;1.40;;;29.50;99.90;;;;;;4965908;28;20472;-71
2022/09/04 15:14:03;;;;;;;1.60;1.10;;;29.60;99.90;;;;;;4965997;28;20540;-69
2022/09/04 15:16:48;;;;;;;1.70;1.27;;;29.80;99.90;;;;;;4966063;28;20428;-70
2022/09/04 15:19:36;;;;;;;1.33;1.20;;;29.90;99.90;;;;;;4971387;28;20556;-71
2022/09/04 15:22:09;;;;;;;2.07;1.30;;;30.10;99.90;;;;;;4972383;28;21027;-68
2022/09/04 15:24:39;;;;;;;1.73;1.23;;;30.10;99.90;;;;;;4987829;28;20456;-68
2022/09/04 15:27:15;;;;;;;2.17;1.50;;;30.00;99.90;;;;;;4988787;28;20530;-70
2022/09/04 15:29:58;;;;;;;4.00;2.07;;;30.00;99.90;;;;;;4988621;28;20459;-70
2022/09/04 15:32:28;;;;;;;1.87;1.63;;;30.00;99.90;;;;;;4989846;28;20474;-69
2022/09/04 15:35:15;;;;;;;1.47;1.37;;;29.90;99.90;;;;;;4986720;28;20992;-71
2022/09/04 15:37:45;;;;;;;2.10;1.30;;;29.90;99.90;;;;;;4990274;28;20464;-70
2022/09/04 15:40:20;;;;;;;1.50;1.17;;;29.90;99.90;;;;;;4989869;28;20500;-69
2022/09/04 15:43:07;;;;;;;3.10;1.40;;;29.90;99.90;;;;;;4989631;28;20423;-71
2022/09/04 15:45:42;;;;;;;2.70;1.17;;;29.90;99.90;;;;;;4989504;28;20444;-68
2022/09/04 15:48:20;;;;;;;1.80;1.40;;;30.00;99.90;;;;;;4988804;28;20935;-70
2022/09/04 15:51:00;;;;;;;1.40;1.20;;;30.00;99.90;;;;;;4989580;28;20482;-70
2022/09/04 15:53:31;;;;;;;1.67;1.30;;;30.00;99.90;;;;;;4989596;28;20934;-69
2022/09/04 15:56:09;;;;;;;2.60;1.20;;;30.00;99.90;;;;;;4989070;28;20459;-70
2022/09/04 15:58:45;;;;;;;1.70;1.50;;;30.10;99.90;;;;;;4989686;28;20447;-68
2022/09/04 16:01:16;;;;;;;1.40;1.10;;;30.30;99.90;;;;;;4989044;28;20994;-67
2022/09/04 16:03:54;;;;;;;5.57;2.00;;;30.40;99.90;;;;;;4989717;28;20824;-68
2022/09/04 16:06:30;;;;;;;2.23;1.40;;;30.40;99.90;;;;;;4988431;28;21138;-68
2022/09/04 16:09:02;;;;;;;2.13;1.03;;;30.60;99.90;;;;;;4988772;28;20476;-68
2022/09/04 16:11:34;;;;;;;1.83;1.47;;;30.70;99.90;;;;;;4985562;28;20467;-67
2022/09/04 16:14:04;;;;;;;1.63;1.20;;;30.70;99.90;;;;;;4989195;28;20452;-68
2022/09/04 16:16:39;;;;;;;1.53;1.43;;;30.70;99.90;;;;;;4989153;28;20467;-67
2022/09/04 16:19:25;;;;;;;2.70;1.90;;;30.80;99.90;;;;;;4989272;28;20480;-68
2022/09/04 16:22:03;;;;;;;2.10;1.50;;;30.80;99.90;;;;;;4989434;28;20534;-69
2022/09/04 16:24:38;;;;;;;2.90;1.50;;;30.90;99.90;;;;;;4988660;28;20455;-68
2022/09/04 16:27:08;;;;;;;1.60;1.30;;;31.00;99.90;;;;;;4988890;28;20448;-69
2022/09/04 16:29:38;;;;;;;3.33;1.40;;;30.90;99.90;;;;;;4987859;28;20466;-69
2022/09/04 16:32:11;;;;;;;2.93;1.60;;;30.90;99.90;;;;;;4988395;28;20480;-69
2022/09/04 16:34:45;;;;;;;10.87;3.20;;;30.80;99.90;;;;;;4987770;28;20447;-70
2022/09/04 16:37:18;;;;;;;2.13;1.87;;;30.60;99.90;;;;;;4987912;28;20455;-68
2022/09/04 16:39:55;;;;;;;1.60;1.30;;;30.50;99.90;;;;;;4987986;28;20483;-68
2022/09/04 16:42:28;;;;;;;1.60;1.30;;;30.30;99.90;;;;;;4988315;28;20486;-68
2022/09/04 16:45:03;;;;;;;3.17;1.17;;;30.10;99.90;;;;;;4987347;28;20939;-68
2022/09/04 16:47:37;;;;;;;1.63;1.30;;;30.00;99.90;;;;;;4989173;28;20469;-66
2022/09/04 16:50:12;;;;;;;2.80;1.93;;;29.80;99.90;;;;;;4988404;28;20460;-68
2022/09/04 16:53:03;;;;;;;2.00;1.30;;;29.70;99.90;;;;;;4988124;28;20507;-68
2022/09/04 16:55:35;;;;;;;6.63;1.30;;;29.50;99.90;;;;;;4987238;28;20452;-68
2022/09/04 16:58:20;;;;;;;2.10;1.60;;;29.40;99.90;;;;;;4987699;28;20459;-67
2022/09/04 17:01:05;;;;;;;2.73;1.80;;;29.20;99.90;;;;;;4987432;28;20642;-67
2022/09/04 17:03:43;;;;;;;1.90;1.20;;;29.00;99.90;;;;;;4987416;28;20456;-67
2022/09/04 17:06:20;;;;;;;1.70;1.50;;;28.90;99.90;;;;;;4986146;28;20538;-67
2022/09/04 17:08:55;;;;;;;2.83;1.57;;;28.70;99.90;;;;;;4986700;28;20444;-67
2022/09/04 17:11:31;;;;;;;1.50;1.40;;;28.60;99.90;;;;;;4986704;28;20491;-67
2022/09/04 17:14:07;;;;;;;2.07;1.40;;;28.50;99.90;;;;;;4986037;28;20454;-67
2022/09/04 17:16:39;;;;;;;1.70;1.30;;;28.40;99.90;;;;;;4985853;28;20443;-67
2022/09/04 17:19:14;;;;;;;2.47;1.40;;;28.30;99.90;;;;;;4985872;28;20463;-67
2022/09/04 17:24:50;;;;;;;3.00;1.40;;;28.00;99.90;;;;;;4985239;28;20443;-68
2022/09/04 17:27:23;;;;;;;1.43;1.33;;;27.90;99.90;;;;;;4986239;28;20455;-67
2022/09/04 17:29:56;;;;;;;4.03;1.90;;;27.80;99.90;;;;;;4985184;28;20464;-67
2022/09/04 17:32:28;;;;;;;2.07;1.60;;;27.60;99.90;;;;;;4985928;28;21054;-68
2022/09/04 17:35:01;;;;;;;3.70;1.50;;;27.50;99.90;;;;;;4985683;28;20535;-69
2022/09/04 17:37:37;;;;;;;3.53;1.90;;;27.40;99.90;;;;;;4985819;28;20530;-69
2022/09/04 17:40:14;;;;;;;1.77;1.60;;;27.30;99.90;;;;;;4985410;28;20499;-69
2022/09/04 17:42:54;;;;;;;3.67;1.80;;;27.20;99.90;;;;;;4986015;28;20451;-69
2022/09/04 17:45:29;;;;;;;2.43;1.90;;;27.10;99.90;;;;;;4985121;28;20450;-69
2022/09/04 17:48:04;;;;;;;3.00;1.87;;;27.00;99.90;;;;;;4985585;28;20463;-66
2022/09/04 17:50:31;;;;;;;3.97;2.27;;;26.80;99.90;;;;;;4985601;28;20450;-70
2022/09/04 17:52:59;;;;;;;2.50;1.90;;;26.80;99.90;;;;;;4985794;28;20495;-73
2022/09/04 17:55:30;;;;;;;2.13;1.80;;;26.70;99.90;;;;;;4985409;28;20459;-73
2022/09/04 17:58:04;;;;;;;2.10;1.80;;;26.50;99.90;;;;;;4966685;28;20521;-73
2022/09/04 18:00:36;;;;;;;1.93;1.73;;;26.50;99.90;;;;;;4965301;28;20485;-68
2022/09/04 18:03:11;;;;;;;3.67;1.97;;;26.40;99.90;;;;;;4966170;28;20452;-68
2022/09/04 18:05:44;;;;;;;2.20;1.93;;;26.30;99.90;;;;;;4965798;28;20459;-71
2022/09/04 18:08:18;;;;;;;2.40;2.17;;;26.20;99.90;;;;;;4966685;28;20846;-66
2022/09/04 18:10:54;;;;;;;2.60;2.07;;;26.00;99.90;;;;;;4968718;28;20477;-67
2022/09/04 18:13:32;;;;;;;2.23;1.80;;;26.00;99.90;;;;;;4966287;28;20452;-66
2022/09/04 18:16:15;;;;;;;2.00;1.80;;;25.90;99.90;;;;;;4965613;28;20467;-67
2022/09/04 18:18:47;;;;;;;2.20;2.00;;;25.80;99.90;;;;;;4966350;28;20441;-68
2022/09/04 18:21:21;;;;;;;4.17;2.00;;;25.70;99.90;;;;;;4965937;28;20583;-68
2022/09/04 18:23:55;;;;;;;7.97;1.77;;;25.60;99.90;;;;;;4966491;28;20570;-78